Weather at Bouaké Airport

Public forecast

Using degrees Celsius for public forecast. Weather courtesy of forecast.io.

Current aviation weather report (METAR) for Bouaké Airport

2024/06/25 16:00 (retrieved 20 minutes ago)

DIBK 251600Z 24006KT 9999 BKN013 28/23 Q1012 NOSIG

Aviation forecast (TAF) for Bouaké Airport

2024/06/25 12:09 (retrieved 4 hours ago)

TAF DIBK 251109Z 2512/2612 20011KT 8000 OVC011 BECMG 2515/2516 SCT012 PROB30 TEMPO 2516/2719 TS BKN012 FEW023CB PROB40 TEMPO 2519/2602 4000 TSRA BKN010 FEW023CB BKN030 BECMG 2602/2604 BKN011 TEMPO 2605/2610 4000 DZRA